sensor_id;sensor_type;location;lat;lon;timestamp;pressure;altitude;pressure_sealevel;temperature;humidity
34586;BME280;20816;50.950;11.108;2023-02-28T00:00:37;99702.88;;;-1.38;100.00
34586;BME280;20816;50.950;11.108;2023-02-28T00:03:04;99695.72;;;-1.24;100.00
34586;BME280;20816;50.950;11.108;2023-02-28T00:05:31;99695.72;;;-1.24;100.00
34586;BME280;20816;50.950;11.108;2023-02-28T00:07:58;99693.28;;;-1.21;100.00
34586;BME280;20816;50.950;11.108;2023-02-28T00:10:27;99692.22;;;-1.26;100.00
34586;BME280;20816;50.950;11.108;2023-02-28T00:12:56;99689.69;;;-1.25;100.00
34586;BME280;20816;50.950;11.108;2023-02-28T00:15:25;99687.00;;;-1.28;100.00
34586;BME280;20816;50.950;11.108;2023-02-28T00:17:52;99685.28;;;-1.27;100.00
34586;BME280;20816;50.950;11.108;2023-02-28T00:20:19;99688.41;;;-1.34;100.00
34586;BME280;20816;50.950;11.108;2023-02-28T00:22:49;99680.06;;;-1.29;100.00
34586;BME280;20816;50.950;11.108;2023-02-28T00:25:18;99681.94;;;-1.25;100.00
34586;BME280;20816;50.950;11.108;2023-02-28T00:27:46;99680.00;;;-1.30;100.00
34586;BME280;20816;50.950;11.108;2023-02-28T00:30:19;99683.47;;;-1.30;100.00
34586;BME280;20816;50.950;11.108;2023-02-28T00:32:46;99682.72;;;-1.27;100.00
34586;BME280;20816;50.950;11.108;2023-02-28T00:35:13;99681.78;;;-1.29;100.00
34586;BME280;20816;50.950;11.108;2023-02-28T00:37:40;99684.53;;;-1.25;100.00
34586;BME280;20816;50.950;11.108;2023-02-28T00:40:07;99681.00;;;-1.27;100.00
34586;BME280;20816;50.950;11.108;2023-02-28T00:42:34;99678.81;;;-1.18;100.00
34586;BME280;20816;50.950;11.108;2023-02-28T00:45:02;99678.88;;;-1.16;100.00
34586;BME280;20816;50.950;11.108;2023-02-28T00:47:31;99683.59;;;-1.27;100.00
34586;BME280;20816;50.950;11.108;2023-02-28T00:49:58;99686.44;;;-1.21;100.00
34586;BME280;20816;50.950;11.108;2023-02-28T00:52:25;99683.16;;;-1.17;100.00
34586;BME280;20816;50.950;11.108;2023-02-28T00:54:52;99681.59;;;-1.13;100.00
34586;BME280;20816;50.950;11.108;2023-02-28T00:57:19;99676.50;;;-1.11;100.00
34586;BME280;20816;50.950;11.108;2023-02-28T00:59:45;99677.63;;;-1.05;100.00
34586;BME280;20816;50.950;11.108;2023-02-28T01:02:12;99677.81;;;-1.00;100.00
34586;BME280;20816;50.950;11.108;2023-02-28T01:04:39;99682.03;;;-1.02;100.00
34586;BME280;20816;50.950;11.108;2023-02-28T01:07:06;99677.13;;;-0.96;100.00
34586;BME280;20816;50.950;11.108;2023-02-28T01:09:32;99677.00;;;-0.99;100.00
34586;BME280;20816;50.950;11.108;2023-02-28T01:11:59;99678.47;;;-1.06;100.00
34586;BME280;20816;50.950;11.108;2023-02-28T01:14:26;99681.28;;;-1.00;100.00
34586;BME280;20816;50.950;11.108;2023-02-28T01:16:52;99683.75;;;-1.03;100.00
34586;BME280;20816;50.950;11.108;2023-02-28T01:19:19;99674.97;;;-1.06;100.00
34586;BME280;20816;50.950;11.108;2023-02-28T01:21:46;99684.41;;;-1.07;100.00
34586;BME280;20816;50.950;11.108;2023-02-28T01:24:12;99681.84;;;-1.07;100.00
34586;BME280;20816;50.950;11.108;2023-02-28T01:26:39;99674.50;;;-0.98;100.00
34586;BME280;20816;50.950;11.108;2023-02-28T01:29:06;99671.22;;;-0.94;100.00
34586;BME280;20816;50.950;11.108;2023-02-28T01:31:33;99676.00;;;-1.03;100.00
34586;BME280;20816;50.950;11.108;2023-02-28T01:33:59;99670.06;;;-1.00;100.00
34586;BME280;20816;50.950;11.108;2023-02-28T01:36:26;99670.38;;;-0.93;100.00
34586;BME280;20816;50.950;11.108;2023-02-28T01:38:53;99676.00;;;-1.03;100.00
34586;BME280;20816;50.950;11.108;2023-02-28T01:41:23;99666.56;;;-1.02;100.00
34586;BME280;20816;50.950;11.108;2023-02-28T01:43:59;99672.59;;;-1.02;100.00
34586;BME280;20816;50.950;11.108;2023-02-28T01:46:31;99664.28;;;-0.95;100.00
34586;BME280;20816;50.950;11.108;2023-02-28T01:49:02;99668.44;;;-0.98;100.00
34586;BME280;20816;50.950;11.108;2023-02-28T01:51:37;99668.25;;;-1.03;100.00
34586;BME280;20816;50.950;11.108;2023-02-28T01:54:09;99665.78;;;-1.00;100.00
34586;BME280;20816;50.950;11.108;2023-02-28T01:56:44;99666.16;;;-0.91;100.00
34586;BME280;20816;50.950;11.108;2023-02-28T01:59:14;99663.91;;;-1.04;100.00
34586;BME280;20816;50.950;11.108;2023-02-28T02:01:46;99653.47;;;-1.07;100.00
34586;BME280;20816;50.950;11.108;2023-02-28T02:04:12;99659.38;;;-1.09;100.00
34586;BME280;20816;50.950;11.108;2023-02-28T02:06:43;99660.53;;;-1.03;100.00
34586;BME280;20816;50.950;11.108;2023-02-28T02:09:11;99658.63;;;-1.07;100.00
34586;BME280;20816;50.950;11.108;2023-02-28T02:11:40;99654.28;;;-1.08;100.00
34586;BME280;20816;50.950;11.108;2023-02-28T02:25:14;99652.84;;;-1.01;100.00
34586;BME280;20816;50.950;11.108;2023-02-28T02:36:38;99646.69;;;-1.05;100.00
34586;BME280;20816;50.950;11.108;2023-02-28T02:39:16;99645.72;;;-1.07;100.00
34586;BME280;20816;50.950;11.108;2023-02-28T02:41:50;99647.09;;;-1.15;100.00
34586;BME280;20816;50.950;11.108;2023-02-28T02:44:21;99652.25;;;-1.15;100.00
34586;BME280;20816;50.950;11.108;2023-02-28T02:46:55;99649.88;;;-1.10;100.00
34586;BME280;20816;50.950;11.108;2023-02-28T02:49:29;99645.22;;;-1.19;100.00
34586;BME280;20816;50.950;11.108;2023-02-28T02:52:02;99646.59;;;-1.06;100.00
34586;BME280;20816;50.950;11.108;2023-02-28T02:54:33;99648.19;;;-1.10;100.00
34586;BME280;20816;50.950;11.108;2023-02-28T02:57:06;99648.06;;;-1.13;100.00
34586;BME280;20816;50.950;11.108;2023-02-28T02:59:36;99648.63;;;-1.20;100.00
34586;BME280;20816;50.950;11.108;2023-02-28T03:02:08;99647.91;;;-1.16;100.00
34586;BME280;20816;50.950;11.108;2023-02-28T03:04:42;99646.31;;;-1.14;100.00
34586;BME280;20816;50.950;11.108;2023-02-28T03:07:09;99641.00;;;-1.17;100.00
34586;BME280;20816;50.950;11.108;2023-02-28T03:09:36;99641.63;;;-1.23;100.00
34586;BME280;20816;50.950;11.108;2023-02-28T03:12:03;99646.66;;;-1.26;100.00
34586;BME280;20816;50.950;11.108;2023-02-28T03:14:42;99643.09;;;-1.29;100.00
34586;BME280;20816;50.950;11.108;2023-02-28T03:20:35;99644.97;;;-1.25;100.00
34586;BME280;20816;50.950;11.108;2023-02-28T03:23:37;99646.88;;;-1.21;100.00
34586;BME280;20816;50.950;11.108;2023-02-28T03:26:15;99648.56;;;-1.22;100.00
34586;BME280;20816;50.950;11.108;2023-02-28T03:28:52;99650.88;;;-1.28;100.00
34586;BME280;20816;50.950;11.108;2023-02-28T03:31:27;99650.19;;;-1.24;100.00
34586;BME280;20816;50.950;11.108;2023-02-28T03:34:24;99651.25;;;-1.19;100.00
34586;BME280;20816;50.950;11.108;2023-02-28T03:37:02;99647.81;;;-1.19;99.42
34586;BME280;20816;50.950;11.108;2023-02-28T03:39:43;99645.91;;;-1.23;100.00
34586;BME280;20816;50.950;11.108;2023-02-28T03:42:15;99659.69;;;-1.23;100.00
34586;BME280;20816;50.950;11.108;2023-02-28T03:44:49;99654.22;;;-1.30;100.00
34586;BME280;20816;50.950;11.108;2023-02-28T03:47:22;99651.56;;;-1.32;100.00
34586;BME280;20816;50.950;11.108;2023-02-28T03:49:54;99649.06;;;-1.30;100.00
34586;BME280;20816;50.950;11.108;2023-02-28T03:52:28;99649.44;;;-1.21;100.00
34586;BME280;20816;50.950;11.108;2023-02-28T03:55:04;99650.94;;;-1.26;100.00
34586;BME280;20816;50.950;11.108;2023-02-28T03:57:38;99658.25;;;-1.16;100.00
34586;BME280;20816;50.950;11.108;2023-02-28T04:00:20;99653.56;;;-1.25;100.00
34586;BME280;20816;50.950;11.108;2023-02-28T04:02:47;99649.25;;;-1.26;100.00
34586;BME280;20816;50.950;11.108;2023-02-28T04:05:19;99655.16;;;-1.28;100.00
34586;BME280;20816;50.950;11.108;2023-02-28T04:07:46;99650.94;;;-1.26;100.00
34586;BME280;20816;50.950;11.108;2023-02-28T04:10:15;99652.97;;;-1.19;100.00
34586;BME280;20816;50.950;11.108;2023-02-28T04:12:42;99660.59;;;-1.22;100.00
34586;BME280;20816;50.950;11.108;2023-02-28T04:15:09;99657.19;;;-1.21;100.00
34586;BME280;20816;50.950;11.108;2023-02-28T04:17:37;99655.59;;;-1.18;100.00
34586;BME280;20816;50.950;11.108;2023-02-28T04:20:04;99654.97;;;-1.12;100.00
34586;BME280;20816;50.950;11.108;2023-02-28T04:22:36;99656.31;;;-1.22;100.00
34586;BME280;20816;50.950;11.108;2023-02-28T04:25:04;99659.44;;;-1.29;100.00
34586;BME280;20816;50.950;11.108;2023-02-28T04:27:32;99655.00;;;-1.31;100.00
34586;BME280;20816;50.950;11.108;2023-02-28T04:29:59;99667.50;;;-1.21;100.00
34586;BME280;20816;50.950;11.108;2023-02-28T04:32:25;99665.41;;;-1.30;100.00
34586;BME280;20816;50.950;11.108;2023-02-28T04:34:52;99666.41;;;-1.26;100.00
34586;BME280;20816;50.950;11.108;2023-02-28T04:37:19;99658.69;;;-1.26;100.00
34586;BME280;20816;50.950;11.108;2023-02-28T04:39:45;99668.88;;;-1.29;100.00
34586;BME280;20816;50.950;11.108;2023-02-28T04:42:12;99659.22;;;-1.33;100.00
34586;BME280;20816;50.950;11.108;2023-02-28T04:44:39;99669.94;;;-1.24;100.00
34586;BME280;20816;50.950;11.108;2023-02-28T04:47:06;99668.78;;;-1.31;100.00
34586;BME280;20816;50.950;11.108;2023-02-28T04:49:33;99667.91;;;-1.31;100.00
34586;BME280;20816;50.950;11.108;2023-02-28T04:52:00;99668.78;;;-1.31;100.00
34586;BME280;20816;50.950;11.108;2023-02-28T04:54:26;99667.78;;;-1.34;100.00
34586;BME280;20816;50.950;11.108;2023-02-28T04:56:54;99672.94;;;-1.34;100.00
34586;BME280;20816;50.950;11.108;2023-02-28T04:59:21;99673.94;;;-1.31;100.00
34586;BME280;20816;50.950;11.108;2023-02-28T05:01:48;99670.38;;;-1.34;100.00
34586;BME280;20816;50.950;11.108;2023-02-28T05:04:15;99668.78;;;-1.31;100.00
34586;BME280;20816;50.950;11.108;2023-02-28T05:06:42;99664.53;;;-1.30;100.00
34586;BME280;20816;50.950;11.108;2023-02-28T05:09:09;99661.47;;;-1.41;100.00
34586;BME280;20816;50.950;11.108;2023-02-28T05:11:38;99672.69;;;-1.41;100.00
34586;BME280;20816;50.950;11.108;2023-02-28T05:14:12;99672.28;;;-1.50;100.00
34586;BME280;20816;50.950;11.108;2023-02-28T05:16:39;99674.19;;;-1.46;100.00
34586;BME280;20816;50.950;11.108;2023-02-28T05:19:06;99678.66;;;-1.42;100.00
34586;BME280;20816;50.950;11.108;2023-02-28T05:21:34;99679.09;;;-1.52;100.00
34586;BME280;20816;50.950;11.108;2023-02-28T05:24:04;99677.31;;;-1.53;100.00
34586;BME280;20816;50.950;11.108;2023-02-28T05:26:35;99683.41;;;-1.51;100.00
34586;BME280;20816;50.950;11.108;2023-02-28T05:29:02;99681.53;;;-1.55;100.00
34586;BME280;20816;50.950;11.108;2023-02-28T05:31:28;99681.84;;;-1.47;100.00
34586;BME280;20816;50.950;11.108;2023-02-28T05:33:56;99682.31;;;-1.56;100.00
34586;BME280;20816;50.950;11.108;2023-02-28T05:36:23;99683.47;;;-1.49;100.00
34586;BME280;20816;50.950;11.108;2023-02-28T05:38:50;99685.88;;;-1.54;100.00
34586;BME280;20816;50.950;11.108;2023-02-28T05:41:19;99697.66;;;-1.59;100.00
34586;BME280;20816;50.950;11.108;2023-02-28T05:43:47;99690.53;;;-1.64;100.00
34586;BME280;20816;50.950;11.108;2023-02-28T05:46:14;99700.94;;;-1.63;100.00
34586;BME280;20816;50.950;11.108;2023-02-28T05:48:42;99707.44;;;-1.71;100.00
34586;BME280;20816;50.950;11.108;2023-02-28T05:51:09;99698.28;;;-1.64;100.00
34586;BME280;20816;50.950;11.108;2023-02-28T05:53:36;99700.03;;;-1.63;100.00
34586;BME280;20816;50.950;11.108;2023-02-28T05:56:04;99702.69;;;-1.62;100.00
34586;BME280;20816;50.950;11.108;2023-02-28T05:58:30;99703.84;;;-1.75;100.00
34586;BME280;20816;50.950;11.108;2023-02-28T06:00:58;99709.88;;;-1.74;100.00
34586;BME280;20816;50.950;11.108;2023-02-28T06:03:26;99708.53;;;-1.85;100.00
34586;BME280;20816;50.950;11.108;2023-02-28T06:05:53;99703.38;;;-1.85;100.00
34586;BME280;20816;50.950;11.108;2023-02-28T06:08:19;99700.84;;;-1.84;100.00
34586;BME280;20816;50.950;11.108;2023-02-28T06:10:46;99703.63;;;-1.99;100.00
34586;BME280;20816;50.950;11.108;2023-02-28T06:13:13;99713.25;;;-1.94;100.00
34586;BME280;20816;50.950;11.108;2023-02-28T06:15:40;99709.47;;;-2.03;100.00
34586;BME280;20816;50.950;11.108;2023-02-28T06:18:06;99704.44;;;-2.00;100.00
34586;BME280;20816;50.950;11.108;2023-02-28T06:20:33;99720.31;;;-1.90;100.00
34586;BME280;20816;50.950;11.108;2023-02-28T06:23:00;99720.00;;;-1.97;100.00
34586;BME280;20816;50.950;11.108;2023-02-28T06:25:27;99717.84;;;-2.07;100.00
34586;BME280;20816;50.950;11.108;2023-02-28T06:27:54;99713.72;;;-2.03;100.00
34586;BME280;20816;50.950;11.108;2023-02-28T06:30:21;99722.75;;;-1.93;100.00
34586;BME280;20816;50.950;11.108;2023-02-28T06:32:54;99724.91;;;-2.03;100.00
34586;BME280;20816;50.950;11.108;2023-02-28T06:35:20;99722.03;;;-2.09;100.00
34586;BME280;20816;50.950;11.108;2023-02-28T06:37:47;99728.31;;;-2.04;100.00
34586;BME280;20816;50.950;11.108;2023-02-28T06:40:14;99741.44;;;-1.98;100.00
34586;BME280;20816;50.950;11.108;2023-02-28T06:42:41;99736.97;;;-2.02;100.00
34586;BME280;20816;50.950;11.108;2023-02-28T06:45:09;99749.03;;;-2.01;100.00
34586;BME280;20816;50.950;11.108;2023-02-28T06:47:41;99738.22;;;-1.93;100.00
34586;BME280;20816;50.950;11.108;2023-02-28T06:50:11;99745.78;;;-1.97;100.00
34586;BME280;20816;50.950;11.108;2023-02-28T06:52:38;99745.19;;;-1.91;100.00
34586;BME280;20816;50.950;11.108;2023-02-28T06:55:06;99745.00;;;-1.95;100.00
34586;BME280;20816;50.950;11.108;2023-02-28T06:57:35;99747.81;;;-1.89;100.00
34586;BME280;20816;50.950;11.108;2023-02-28T07:00:06;99753.28;;;-1.83;100.00
34586;BME280;20816;50.950;11.108;2023-02-28T07:02:35;99754.22;;;-1.81;100.00
34586;BME280;20816;50.950;11.108;2023-02-28T07:05:02;99752.06;;;-1.72;100.00
34586;BME280;20816;50.950;11.108;2023-02-28T07:07:29;99754.09;;;-1.65;100.00
34586;BME280;20816;50.950;11.108;2023-02-28T07:09:56;99762.19;;;-1.57;100.00
34586;BME280;20816;50.950;11.108;2023-02-28T07:12:23;99753.84;;;-1.52;100.00
34586;BME280;20816;50.950;11.108;2023-02-28T07:14:49;99760.09;;;-1.47;100.00
34586;BME280;20816;50.950;11.108;2023-02-28T07:17:16;99763.81;;;-1.40;100.00
34586;BME280;20816;50.950;11.108;2023-02-28T07:19:42;99758.59;;;-1.42;100.00
34586;BME280;20816;50.950;11.108;2023-02-28T07:22:09;99768.06;;;-1.41;100.00
34586;BME280;20816;50.950;11.108;2023-02-28T07:24:36;99760.63;;;-1.34;100.00
34586;BME280;20816;50.950;11.108;2023-02-28T07:27:02;99760.53;;;-1.17;100.00
34586;BME280;20816;50.950;11.108;2023-02-28T07:29:29;99761.97;;;-1.04;100.00
34586;BME280;20816;50.950;11.108;2023-02-28T07:31:56;99760.66;;;-0.94;99.41
34586;BME280;20816;50.950;11.108;2023-02-28T07:34:23;99764.22;;;-0.91;99.08
34586;BME280;20816;50.950;11.108;2023-02-28T07:36:53;99758.09;;;-0.73;98.65
34586;BME280;20816;50.950;11.108;2023-02-28T07:39:21;99763.34;;;-0.49;97.65
34586;BME280;20816;50.950;11.108;2023-02-28T07:41:47;99755.91;;;-0.21;96.56
34586;BME280;20816;50.950;11.108;2023-02-28T07:44:14;99754.81;;;-0.05;95.10
34586;BME280;20816;50.950;11.108;2023-02-28T07:46:41;99751.56;;;0.23;93.78
34586;BME280;20816;50.950;11.108;2023-02-28T07:49:08;99756.63;;;0.42;93.07
34586;BME280;20816;50.950;11.108;2023-02-28T07:51:35;99753.19;;;0.43;91.05
34586;BME280;20816;50.950;11.108;2023-02-28T07:54:01;99752.06;;;0.59;90.40
34586;BME280;20816;50.950;11.108;2023-02-28T07:56:28;99758.38;;;0.91;89.67
34586;BME280;20816;50.950;11.108;2023-02-28T07:58:55;99751.00;;;1.02;88.22
34586;BME280;20816;50.950;11.108;2023-02-28T08:01:22;99752.88;;;1.06;87.42
34586;BME280;20816;50.950;11.108;2023-02-28T08:03:49;99755.84;;;1.44;86.39
34586;BME280;20816;50.950;11.108;2023-02-28T08:06:20;99755.84;;;1.44;85.14
34586;BME280;20816;50.950;11.108;2023-02-28T08:08:48;99753.78;;;1.33;84.42
34586;BME280;20816;50.950;11.108;2023-02-28T08:11:16;99755.19;;;1.49;84.40
34586;BME280;20816;50.950;11.108;2023-02-28T08:13:44;99749.63;;;1.64;84.39
34586;BME280;20816;50.950;11.108;2023-02-28T08:16:12;99758.03;;;1.84;83.25
34586;BME280;20816;50.950;11.108;2023-02-28T08:18:44;99758.91;;;1.84;82.05
34586;BME280;20816;50.950;11.108;2023-02-28T08:21:11;99751.03;;;2.10;80.84
34586;BME280;20816;50.950;11.108;2023-02-28T08:23:38;99749.28;;;2.09;80.89
34586;BME280;20816;50.950;11.108;2023-02-28T08:26:05;99746.59;;;2.34;80.13
34586;BME280;20816;50.950;11.108;2023-02-28T08:28:32;99746.78;;;2.40;79.29
34586;BME280;20816;50.950;11.108;2023-02-28T08:30:59;99746.31;;;2.25;78.17
34586;BME280;20816;50.950;11.108;2023-02-28T08:33:27;99753.72;;;2.41;78.18
34586;BME280;20816;50.950;11.108;2023-02-28T08:35:55;99759.09;;;2.47;78.14
34586;BME280;20816;50.950;11.108;2023-02-28T08:38:23;99759.44;;;2.60;76.57
34586;BME280;20816;50.950;11.108;2023-02-28T08:40:50;99758.22;;;2.47;78.91
34586;BME280;20816;50.950;11.108;2023-02-28T08:43:23;99757.69;;;2.59;77.21
34586;BME280;20816;50.950;11.108;2023-02-28T08:45:53;99751.59;;;2.88;77.09
34586;BME280;20816;50.950;11.108;2023-02-28T08:48:20;99749.25;;;2.97;74.96
34586;BME280;20816;50.950;11.108;2023-02-28T08:51:02;99750.41;;;3.08;74.47
34586;BME280;20816;50.950;11.108;2023-02-28T08:53:33;99756.66;;;2.84;73.93
34586;BME280;20816;50.950;11.108;2023-02-28T08:56:03;99757.38;;;3.09;74.12
34586;BME280;20816;50.950;11.108;2023-02-28T08:58:31;99766.50;;;3.27;73.21
34586;BME280;20816;50.950;11.108;2023-02-28T09:01:16;99759.59;;;3.29;71.99
34586;BME280;20816;50.950;11.108;2023-02-28T09:03:44;99757.41;;;3.44;73.06
34586;BME280;20816;50.950;11.108;2023-02-28T09:06:13;99762.56;;;3.09;70.91
34586;BME280;20816;50.950;11.108;2023-02-28T09:08:43;99765.59;;;2.93;71.40
34586;BME280;20816;50.950;11.108;2023-02-28T09:11:10;99753.69;;;3.01;71.22
34586;BME280;20816;50.950;11.108;2023-02-28T09:13:37;99754.81;;;3.44;71.72
34586;BME280;20816;50.950;11.108;2023-02-28T09:16:07;99758.19;;;3.42;69.49
34586;BME280;20816;50.950;11.108;2023-02-28T09:18:34;99759.53;;;3.26;69.60
34586;BME280;20816;50.950;11.108;2023-02-28T09:21:08;99764.81;;;3.29;70.51
34586;BME280;20816;50.950;11.108;2023-02-28T09:23:35;99760.88;;;3.12;70.52
34586;BME280;20816;50.950;11.108;2023-02-28T09:26:04;99773.75;;;3.40;70.30
34586;BME280;20816;50.950;11.108;2023-02-28T09:28:31;99753.44;;;3.25;69.31
34586;BME280;20816;50.950;11.108;2023-02-28T09:30:58;99756.22;;;3.33;68.58
34586;BME280;20816;50.950;11.108;2023-02-28T09:33:28;99754.13;;;3.51;69.16
34586;BME280;20816;50.950;11.108;2023-02-28T09:35:59;99753.34;;;3.55;68.04
34586;BME280;20816;50.950;11.108;2023-02-28T09:38:27;99752.81;;;3.69;66.77
34586;BME280;20816;50.950;11.108;2023-02-28T09:41:01;99744.31;;;3.08;68.13
34586;BME280;20816;50.950;11.108;2023-02-28T09:43:34;99761.06;;;3.52;68.00
34586;BME280;20816;50.950;11.108;2023-02-28T09:48:50;99754.66;;;3.74;67.07
34586;BME280;20816;50.950;11.108;2023-02-28T09:54:17;99753.66;;;3.68;65.89
34586;BME280;20816;50.950;11.108;2023-02-28T09:56:49;99761.34;;;3.63;65.27
34586;BME280;20816;50.950;11.108;2023-02-28T10:02:24;99751.34;;;4.17;64.00
34586;BME280;20816;50.950;11.108;2023-02-28T10:05:05;99764.69;;;2.93;65.91
34586;BME280;20816;50.950;11.108;2023-02-28T10:10:47;99756.09;;;2.34;67.62
34586;BME280;20816;50.950;11.108;2023-02-28T10:15:52;99767.56;;;1.85;67.89
34586;BME280;20816;50.950;11.108;2023-02-28T10:18:25;99765.66;;;1.79;69.55
34586;BME280;20816;50.950;11.108;2023-02-28T10:20:54;99766.97;;;1.93;69.02
34586;BME280;20816;50.950;11.108;2023-02-28T10:23:37;99754.09;;;2.53;66.60
34586;BME280;20816;50.950;11.108;2023-02-28T10:26:12;99756.00;;;3.24;64.86
34586;BME280;20816;50.950;11.108;2023-02-28T10:28:40;99753.41;;;3.93;62.95
34586;BME280;20816;50.950;11.108;2023-02-28T10:31:11;99757.44;;;4.18;62.73
34586;BME280;20816;50.950;11.108;2023-02-28T10:33:40;99743.28;;;4.46;61.39
34586;BME280;20816;50.950;11.108;2023-02-28T10:36:12;99745.16;;;4.53;60.60
34586;BME280;20816;50.950;11.108;2023-02-28T10:38:40;99750.84;;;4.76;59.77
34586;BME280;20816;50.950;11.108;2023-02-28T10:41:15;99742.84;;;4.67;59.33
34586;BME280;20816;50.950;11.108;2023-02-28T10:43:43;99742.22;;;4.38;60.13
34586;BME280;20816;50.950;11.108;2023-02-28T10:46:15;99745.97;;;4.49;60.04
34586;BME280;20816;50.950;11.108;2023-02-28T10:49:03;99744.41;;;4.59;59.80
34586;BME280;20816;50.950;11.108;2023-02-28T10:51:37;99738.75;;;4.79;59.22
34586;BME280;20816;50.950;11.108;2023-02-28T10:54:06;99741.03;;;5.08;60.31
34586;BME280;20816;50.950;11.108;2023-02-28T10:56:40;99737.13;;;4.85;59.34
34586;BME280;20816;50.950;11.108;2023-02-28T11:01:45;99729.41;;;4.89;58.90
34586;BME280;20816;50.950;11.108;2023-02-28T11:07:16;99734.75;;;4.97;58.15
34586;BME280;20816;50.950;11.108;2023-02-28T11:09:55;99731.03;;;4.84;59.66
34586;BME280;20816;50.950;11.108;2023-02-28T11:12:33;99741.06;;;4.64;59.43
34586;BME280;20816;50.950;11.108;2023-02-28T11:15:25;99738.97;;;4.07;60.73
34586;BME280;20816;50.950;11.108;2023-02-28T11:20:33;99736.53;;;4.15;61.33
34586;BME280;20816;50.950;11.108;2023-02-28T11:23:02;99740.94;;;4.17;60.14
34586;BME280;20816;50.950;11.108;2023-02-28T11:25:32;99731.47;;;4.21;61.19
34586;BME280;20816;50.950;11.108;2023-02-28T11:28:05;99735.38;;;4.41;60.00
34586;BME280;20816;50.950;11.108;2023-02-28T11:33:45;99723.31;;;4.89;59.55
34586;BME280;20816;50.950;11.108;2023-02-28T11:36:23;99720.88;;;4.54;59.69
34586;BME280;20816;50.950;11.108;2023-02-28T11:38:55;99723.41;;;4.49;59.66
34586;BME280;20816;50.950;11.108;2023-02-28T11:41:28;99710.59;;;4.60;59.95
34586;BME280;20816;50.950;11.108;2023-02-28T11:46:58;99703.97;;;4.76;59.21
34586;BME280;20816;50.950;11.108;2023-02-28T11:49:35;99702.75;;;4.59;59.38
34586;BME280;20816;50.950;11.108;2023-02-28T11:52:15;99702.84;;;5.10;59.48
34586;BME280;20816;50.950;11.108;2023-02-28T11:54:59;99698.44;;;5.06;58.56
34586;BME280;20816;50.950;11.108;2023-02-28T11:57:49;99709.22;;;4.79;58.64
34586;BME280;20816;50.950;11.108;2023-02-28T12:00:36;99709.22;;;4.79;59.61
34586;BME280;20816;50.950;11.108;2023-02-28T12:05:45;99703.88;;;5.18;58.99
34586;BME280;20816;50.950;11.108;2023-02-28T12:11:31;99702.84;;;5.10;58.46
34586;BME280;20816;50.950;11.108;2023-02-28T12:14:25;99697.63;;;5.10;58.51
34586;BME280;20816;50.950;11.108;2023-02-28T12:22:50;99690.78;;;5.68;58.81
34586;BME280;20816;50.950;11.108;2023-02-28T12:25:59;99693.91;;;6.02;58.02
34586;BME280;20816;50.950;11.108;2023-02-28T12:28:39;99684.38;;;5.46;58.64
34586;BME280;20816;50.950;11.108;2023-02-28T12:31:24;99689.88;;;5.66;58.13
34586;BME280;20816;50.950;11.108;2023-02-28T12:33:55;99677.56;;;5.56;58.62
34586;BME280;20816;50.950;11.108;2023-02-28T12:36:23;99686.72;;;5.31;58.13
34586;BME280;20816;50.950;11.108;2023-02-28T12:39:13;99686.09;;;5.46;58.44
34586;BME280;20816;50.950;11.108;2023-02-28T12:41:52;99684.25;;;5.39;59.15
34586;BME280;20816;50.950;11.108;2023-02-28T12:44:35;99681.50;;;4.81;59.22
34586;BME280;20816;50.950;11.108;2023-02-28T12:47:14;99679.97;;;4.94;59.52
34586;BME280;20816;50.950;11.108;2023-02-28T12:52:19;99678.88;;;5.29;59.47
34586;BME280;20816;50.950;11.108;2023-02-28T12:55:00;99669.63;;;4.97;59.37
34586;BME280;20816;50.950;11.108;2023-02-28T12:57:41;99669.28;;;4.78;58.93
34586;BME280;20816;50.950;11.108;2023-02-28T13:00:13;99664.41;;;4.97;60.38
34586;BME280;20816;50.950;11.108;2023-02-28T13:02:55;99676.19;;;4.76;60.71
34586;BME280;20816;50.950;11.108;2023-02-28T13:08:21;99665.34;;;4.55;60.62
34586;BME280;20816;50.950;11.108;2023-02-28T13:10:51;99668.88;;;4.57;61.34
34586;BME280;20816;50.950;11.108;2023-02-28T13:13:26;99664.03;;;4.75;60.50
34586;BME280;20816;50.950;11.108;2023-02-28T13:16:02;99671.78;;;4.29;59.96
34586;BME280;20816;50.950;11.108;2023-02-28T13:18:32;99669.84;;;4.62;61.72
34586;BME280;20816;50.950;11.108;2023-02-28T13:21:05;99658.78;;;4.74;60.44
34586;BME280;20816;50.950;11.108;2023-02-28T13:23:56;99658.47;;;4.57;61.08
34586;BME280;20816;50.950;11.108;2023-02-28T13:34:29;99649.13;;;4.68;62.50
34586;BME280;20816;50.950;11.108;2023-02-28T13:47:43;99646.34;;;4.59;63.59
34586;BME280;20816;50.950;11.108;2023-02-28T13:56:03;99653.44;;;3.82;64.90
34586;BME280;20816;50.950;11.108;2023-02-28T13:58:46;99657.31;;;3.61;65.96
34586;BME280;20816;50.950;11.108;2023-02-28T14:01:36;99653.31;;;3.76;65.96
34586;BME280;20816;50.950;11.108;2023-02-28T14:07:36;99642.97;;;3.79;66.22
34586;BME280;20816;50.950;11.108;2023-02-28T14:10:06;99650.56;;;3.70;66.14
34586;BME280;20816;50.950;11.108;2023-02-28T14:18:01;99634.75;;;3.59;67.45
34586;BME280;20816;50.950;11.108;2023-02-28T14:20:31;99640.06;;;3.65;66.74
34586;BME280;20816;50.950;11.108;2023-02-28T14:23:14;99642.16;;;3.42;66.80
34586;BME280;20816;50.950;11.108;2023-02-28T14:31:09;99655.91;;;3.38;68.31
34586;BME280;20816;50.950;11.108;2023-02-28T14:36:20;99647.41;;;3.45;68.48
34586;BME280;20816;50.950;11.108;2023-02-28T14:38:56;99641.78;;;3.27;68.68
34586;BME280;20816;50.950;11.108;2023-02-28T14:41:35;99636.13;;;3.08;69.06
34586;BME280;20816;50.950;11.108;2023-02-28T14:44:21;99636.50;;;3.24;69.71
34586;BME280;20816;50.950;11.108;2023-02-28T14:46:50;99628.88;;;3.31;69.19
34586;BME280;20816;50.950;11.108;2023-02-28T14:49:26;99643.31;;;3.19;69.42
34586;BME280;20816;50.950;11.108;2023-02-28T14:54:37;99631.44;;;2.94;70.49
34586;BME280;20816;50.950;11.108;2023-02-28T14:57:04;99639.09;;;2.89;70.94
34586;BME280;20816;50.950;11.108;2023-02-28T14:59:33;99632.91;;;2.84;70.40